createdAt,value
2018-12-13T00:02:16.421Z,1.70
2018-12-13T00:04:42.757Z,1.70
2018-12-13T00:07:09.087Z,1.97
2018-12-13T00:09:35.514Z,1.73
2018-12-13T00:12:02.092Z,2.40
2018-12-13T00:14:28.478Z,1.70
2018-12-13T00:16:54.870Z,2.17
2018-12-13T00:19:21.268Z,1.70
2018-12-13T00:21:47.647Z,1.90
2018-12-13T00:24:14.036Z,1.57
2018-12-13T00:26:55.541Z,1.63
2018-12-13T00:29:21.994Z,2.20
2018-12-13T00:31:48.515Z,2.07
2018-12-13T00:34:14.913Z,1.80
2018-12-13T00:36:42.365Z,1.83
2018-12-13T00:39:08.758Z,2.30
2018-12-13T00:41:36.106Z,2.40
2018-12-13T00:44:02.950Z,1.60
2018-12-13T00:46:29.482Z,1.70
2018-12-13T00:48:56.069Z,2.20
2018-12-13T00:51:22.506Z,2.13
2018-12-13T00:53:48.966Z,1.30
2018-12-13T00:56:15.368Z,1.50
2018-12-13T00:58:41.874Z,1.60
2018-12-13T01:01:08.280Z,1.87
2018-12-13T01:03:34.850Z,1.73
2018-12-13T01:06:01.343Z,1.60
2018-12-13T01:08:27.715Z,2.10
2018-12-13T01:10:54.142Z,2.17
2018-12-13T01:13:20.562Z,1.57
2018-12-13T01:15:46.994Z,1.53
2018-12-13T01:18:13.365Z,1.20
2018-12-13T01:20:39.716Z,2.27
2018-12-13T01:23:06.179Z,1.60
2018-12-13T01:25:32.570Z,1.60
2018-12-13T01:27:59.101Z,1.63
2018-12-13T01:30:25.480Z,1.70
2018-12-13T01:32:51.865Z,1.60
2018-12-13T01:35:18.270Z,1.70
2018-12-13T01:37:44.605Z,1.90
2018-12-13T01:40:11.144Z,2.07
2018-12-13T01:42:37.584Z,1.83
2018-12-13T01:45:04.122Z,1.63
2018-12-13T01:47:30.499Z,1.97
2018-12-13T01:49:57.148Z,1.50
2018-12-13T01:52:23.519Z,1.50
2018-12-13T01:54:49.909Z,1.57
2018-12-13T01:57:16.332Z,2.20
2018-12-13T01:59:42.796Z,1.87
2018-12-13T02:02:09.185Z,2.33
2018-12-13T02:04:35.634Z,1.87
2018-12-13T02:07:01.984Z,1.63
2018-12-13T02:09:28.399Z,1.73
2018-12-13T02:11:54.811Z,1.83
2018-12-13T02:14:21.176Z,1.90
2018-12-13T02:16:47.574Z,1.70
2018-12-13T02:19:13.963Z,2.10
2018-12-13T02:21:40.466Z,1.60
2018-12-13T02:24:06.843Z,1.37
2018-12-13T02:26:33.258Z,1.53
2018-12-13T02:28:59.697Z,1.70
2018-12-13T02:31:26.111Z,2.17
2018-12-13T02:33:52.974Z,2.23
2018-12-13T02:36:19.516Z,1.83
2018-12-13T02:38:45.968Z,2.13
2018-12-13T02:41:12.388Z,1.90
2018-12-13T02:43:38.801Z,2.33
2018-12-13T02:46:05.196Z,2.07
2018-12-13T02:48:31.937Z,2.03
2018-12-13T02:50:58.331Z,2.10
2018-12-13T02:53:24.746Z,2.20
2018-12-13T02:55:51.163Z,2.37
2018-12-13T02:58:17.684Z,2.23
2018-12-13T03:00:44.136Z,2.20
2018-12-13T03:03:10.538Z,1.90
2018-12-13T03:05:36.974Z,2.33
2018-12-13T03:08:03.913Z,2.17
2018-12-13T03:10:31.153Z,2.20
2018-12-13T03:12:57.519Z,2.20
2018-12-13T03:15:23.918Z,1.93
2018-12-13T03:17:50.335Z,2.20
2018-12-13T03:20:16.714Z,2.83
2018-12-13T03:22:43.166Z,2.10
2018-12-13T03:25:09.672Z,2.07
2018-12-13T03:27:36.042Z,2.47
2018-12-13T03:30:04.310Z,1.90
2018-12-13T03:32:30.671Z,2.00
2018-12-13T03:34:57.045Z,2.10
2018-12-13T03:37:23.401Z,1.80
2018-12-13T03:39:49.716Z,1.53
2018-12-13T03:42:16.161Z,1.97
2018-12-13T03:44:42.509Z,2.20
2018-12-13T03:47:08.875Z,2.03
2018-12-13T03:49:35.345Z,1.87
2018-12-13T03:52:01.779Z,2.07
2018-12-13T03:54:28.245Z,1.60
2018-12-13T03:56:54.577Z,2.50
2018-12-13T03:59:20.911Z,1.63
2018-12-13T04:01:47.389Z,2.23
2018-12-13T04:04:13.755Z,2.40
2018-12-13T04:06:40.200Z,1.70
2018-12-13T04:09:06.643Z,1.97
2018-12-13T04:11:33.050Z,1.93
2018-12-13T04:13:59.438Z,2.10
2018-12-13T04:16:25.810Z,2.10
2018-12-13T04:18:52.235Z,1.80
2018-12-13T04:21:18.606Z,1.93
2018-12-13T04:23:44.980Z,1.83
2018-12-13T04:26:11.829Z,1.60
2018-12-13T04:28:38.380Z,2.00
2018-12-13T04:31:04.765Z,2.10
2018-12-13T04:37:00.506Z,2.10
2018-12-13T04:39:26.944Z,1.77
2018-12-13T04:41:53.357Z,1.97
2018-12-13T04:44:19.881Z,1.90
2018-12-13T04:46:46.247Z,1.50
2018-12-13T04:49:12.634Z,1.80
2018-12-13T04:51:39.079Z,1.93
2018-12-13T04:54:06.335Z,1.70
2018-12-13T04:56:32.700Z,1.73
2018-12-13T04:58:59.076Z,1.80
2018-12-13T05:01:25.474Z,2.07
2018-12-13T05:03:51.883Z,1.70
2018-12-13T05:06:18.332Z,2.27
2018-12-13T05:08:44.759Z,1.70
2018-12-13T05:11:11.664Z,1.30
2018-12-13T05:13:38.120Z,2.10
2018-12-13T05:16:04.875Z,2.00
2018-12-13T05:18:31.259Z,2.07
2018-12-13T05:20:57.663Z,2.30
2018-12-13T05:23:24.009Z,1.93
2018-12-13T05:25:50.454Z,1.93
2018-12-13T05:28:16.910Z,1.83
2018-12-13T05:30:43.333Z,1.93
2018-12-13T05:33:09.689Z,2.60
2018-12-13T05:35:36.097Z,2.47
2018-12-13T05:38:02.513Z,2.50
2018-12-13T05:40:28.889Z,2.13
2018-12-13T05:42:55.277Z,2.23
2018-12-13T05:45:21.679Z,2.17
2018-12-13T05:47:48.155Z,2.50
2018-12-13T05:50:14.568Z,5.50
2018-12-13T05:52:41.139Z,2.43
2018-12-13T05:55:08.579Z,2.20
2018-12-13T05:57:35.246Z,2.20
2018-12-13T06:00:01.812Z,2.70
2018-12-13T06:02:28.199Z,4.37
2018-12-13T06:04:54.588Z,2.47
2018-12-13T06:07:20.975Z,2.50
2018-12-13T06:09:47.417Z,2.67
2018-12-13T06:12:13.779Z,2.50
2018-12-13T06:14:40.179Z,2.27
2018-12-13T06:17:06.681Z,2.27
2018-12-13T06:19:33.046Z,2.53
2018-12-13T06:21:59.458Z,2.70
2018-12-13T06:24:25.820Z,2.53
2018-12-13T06:26:53.151Z,2.93
2018-12-13T06:29:19.507Z,3.20
2018-12-13T06:31:45.935Z,2.80
2018-12-13T06:34:12.388Z,2.80
2018-12-13T06:36:38.892Z,2.27
2018-12-13T06:39:06.566Z,2.73
2018-12-13T06:41:32.922Z,13.70
2018-12-13T06:43:59.794Z,3.40
2018-12-13T06:46:26.306Z,3.70
2018-12-13T06:48:52.986Z,3.27
2018-12-13T06:51:20.176Z,3.40
2018-12-13T06:53:46.775Z,3.87
2018-12-13T06:56:13.227Z,3.40
2018-12-13T06:58:40.523Z,3.30
2018-12-13T07:01:07.004Z,3.00
2018-12-13T07:03:33.409Z,3.53
2018-12-13T07:05:59.876Z,3.03
2018-12-13T07:08:26.302Z,3.37
2018-12-13T07:10:52.768Z,2.70
2018-12-13T07:13:19.263Z,2.90
2018-12-13T07:15:45.701Z,2.53
2018-12-13T07:18:12.468Z,2.93
2018-12-13T07:20:38.995Z,2.47
2018-12-13T07:23:05.423Z,3.20
2018-12-13T07:25:31.906Z,3.27
2018-12-13T07:27:58.726Z,2.80
2018-12-13T07:30:25.291Z,3.40
2018-12-13T07:32:51.833Z,2.63
2018-12-13T07:35:18.412Z,2.77
2018-12-13T07:37:44.851Z,2.40
2018-12-13T07:40:12.309Z,2.77
2018-12-13T07:42:38.798Z,3.27
2018-12-13T07:45:06.067Z,2.57
2018-12-13T07:47:32.527Z,2.67
2018-12-13T07:49:59.017Z,2.60
2018-12-13T07:52:25.523Z,3.33
2018-12-13T07:54:51.958Z,3.80
2018-12-13T07:57:19.320Z,4.23
2018-12-13T07:59:45.786Z,3.20
2018-12-13T08:02:13.153Z,3.37
2018-12-13T08:04:39.640Z,3.00
2018-12-13T08:07:06.274Z,2.60
2018-12-13T08:09:32.855Z,2.67
2018-12-13T08:11:59.261Z,3.90
2018-12-13T08:14:25.689Z,3.20
2018-12-13T08:16:52.456Z,3.83
2018-12-13T08:19:18.834Z,3.17
2018-12-13T08:21:45.194Z,3.50
2018-12-13T08:24:11.645Z,3.10
2018-12-13T08:26:38.189Z,3.10
2018-12-13T08:29:04.639Z,3.20
2018-12-13T08:31:31.133Z,3.57
2018-12-13T08:33:57.494Z,3.50
2018-12-13T08:36:24.858Z,3.17
2018-12-13T08:38:51.300Z,3.50
2018-12-13T08:41:17.825Z,3.07
2018-12-13T08:43:44.257Z,2.53
2018-12-13T08:46:10.747Z,3.67
2018-12-13T08:48:37.227Z,2.77
2018-12-13T08:51:03.693Z,8.27
2018-12-13T08:53:30.125Z,3.83
2018-12-13T08:55:56.663Z,3.57
2018-12-13T08:58:23.080Z,3.63
2018-12-13T09:00:49.564Z,2.93
2018-12-13T09:03:15.958Z,3.43
2018-12-13T09:05:42.322Z,3.10
2018-12-13T09:08:08.774Z,3.07
2018-12-13T09:10:35.195Z,3.00
2018-12-13T09:13:01.690Z,2.93
2018-12-13T09:15:28.159Z,2.80
2018-12-13T09:17:54.543Z,2.70
2018-12-13T09:20:20.990Z,2.70
2018-12-13T09:22:47.823Z,2.93
2018-12-13T09:25:14.801Z,2.53
2018-12-13T09:27:41.457Z,3.17
2018-12-13T09:30:07.918Z,3.20
2018-12-13T09:32:34.348Z,3.20
2018-12-13T09:35:15.825Z,2.73
2018-12-13T09:37:47.504Z,2.33
2018-12-13T09:40:10.768Z,2.83
2018-12-13T09:42:37.157Z,3.40
2018-12-13T09:45:05.386Z,3.23
2018-12-13T09:47:31.870Z,3.00
2018-12-13T09:49:58.268Z,4.33
2018-12-13T09:52:24.916Z,3.40
2018-12-13T09:54:51.246Z,4.97
2018-12-13T09:57:18.280Z,3.03
2018-12-13T09:59:44.737Z,4.03
2018-12-13T10:02:12.244Z,3.00
2018-12-13T10:04:38.815Z,3.50
2018-12-13T10:07:05.186Z,2.83
2018-12-13T10:09:31.613Z,2.67
2018-12-13T10:11:58.172Z,2.43
2018-12-13T10:14:24.558Z,2.60
2018-12-13T10:16:51.066Z,2.47
2018-12-13T10:19:17.478Z,2.80
2018-12-13T10:21:43.985Z,2.50
2018-12-13T10:24:10.395Z,2.73
2018-12-13T10:26:36.765Z,3.10
2018-12-13T10:29:03.261Z,3.20
2018-12-13T10:31:29.666Z,2.80
2018-12-13T10:33:57.061Z,2.40
2018-12-13T10:36:23.405Z,2.30
2018-12-13T10:38:52.961Z,2.30
2018-12-13T10:41:19.242Z,2.73
2018-12-13T10:43:45.669Z,3.07
2018-12-13T10:46:12.060Z,2.37
2018-12-13T10:48:38.622Z,2.20
2018-12-13T10:51:05.215Z,1.90
2018-12-13T10:53:32.018Z,2.67
2018-12-13T10:58:52.974Z,2.20
2018-12-13T11:01:25.306Z,2.00
2018-12-13T11:03:52.946Z,2.00
2018-12-13T11:06:19.412Z,2.10
2018-12-13T11:08:45.849Z,2.13
2018-12-13T11:11:12.282Z,2.20
2018-12-13T11:13:38.847Z,1.70
2018-12-13T11:16:05.516Z,1.87
2018-12-13T11:18:32.190Z,2.23
2018-12-13T11:20:58.663Z,2.13
2018-12-13T11:23:25.075Z,3.70
2018-12-13T11:25:51.524Z,1.70
2018-12-13T11:31:21.272Z,2.10
2018-12-13T11:33:47.680Z,2.20
2018-12-13T11:36:14.089Z,2.23
2018-12-13T11:38:40.427Z,2.53
2018-12-13T11:41:06.802Z,2.30
2018-12-13T11:43:33.225Z,2.47
2018-12-13T11:45:59.759Z,2.70
2018-12-13T11:48:26.134Z,3.00
2018-12-13T11:50:52.643Z,2.63
2018-12-13T11:53:19.043Z,2.77
2018-12-13T11:55:45.511Z,2.80
2018-12-13T11:58:12.470Z,1.97
2018-12-13T12:00:38.926Z,2.50
2018-12-13T12:03:05.364Z,2.10
2018-12-13T12:05:32.331Z,2.10
2018-12-13T12:07:58.747Z,2.30
2018-12-13T12:10:25.257Z,1.70
2018-12-13T12:12:51.634Z,5.57
2018-12-13T12:15:18.217Z,2.13
2018-12-13T12:17:45.213Z,2.13
2018-12-13T12:20:11.848Z,1.70
2018-12-13T12:22:38.385Z,2.00
2018-12-13T12:25:05.237Z,2.17
2018-12-13T12:27:31.677Z,1.60
2018-12-13T12:29:58.183Z,2.20
2018-12-13T12:32:24.646Z,1.73
2018-12-13T12:34:51.163Z,1.93
2018-12-13T12:37:17.585Z,1.87
2018-12-13T12:39:44.090Z,2.40
2018-12-13T12:42:10.479Z,2.43
2018-12-13T12:44:38.925Z,2.30
2018-12-13T12:47:05.777Z,2.40
2018-12-13T12:49:32.204Z,2.43
2018-12-13T12:51:58.775Z,2.23
2018-12-13T12:54:25.269Z,2.00
2018-12-13T12:56:51.744Z,2.10
2018-12-13T12:59:19.509Z,2.50
2018-12-13T13:01:46.644Z,2.27
2018-12-13T13:04:13.193Z,2.40
2018-12-13T13:06:39.654Z,2.87
2018-12-13T13:09:07.251Z,2.40
2018-12-13T13:11:33.721Z,2.20
2018-12-13T13:14:00.157Z,2.47
2018-12-13T13:16:26.638Z,2.33
2018-12-13T13:18:53.106Z,2.33
2018-12-13T13:21:20.773Z,3.20
2018-12-13T13:23:47.118Z,2.73
2018-12-13T13:26:13.510Z,2.20
2018-12-13T13:28:39.885Z,3.53
2018-12-13T13:31:06.409Z,2.57
2018-12-13T13:33:32.854Z,3.23
2018-12-13T13:35:59.231Z,2.47
2018-12-13T13:38:25.712Z,2.40
2018-12-13T13:40:53.545Z,2.67
2018-12-13T13:43:20.026Z,3.13
2018-12-13T13:45:46.564Z,2.50
2018-12-13T13:48:13.105Z,3.07
2018-12-13T13:50:39.516Z,3.00
2018-12-13T13:53:06.019Z,2.80
2018-12-13T13:55:32.464Z,3.47
2018-12-13T13:57:59.237Z,3.37
2018-12-13T14:00:25.676Z,2.70
2018-12-13T14:02:52.102Z,2.87
2018-12-13T14:05:18.582Z,4.23
2018-12-13T14:07:45.160Z,2.27
2018-12-13T14:10:11.766Z,2.40
2018-12-13T14:12:38.277Z,2.80
2018-12-13T14:15:05.511Z,3.00
2018-12-13T14:17:32.034Z,2.70
2018-12-13T14:19:58.473Z,3.47
2018-12-13T14:22:24.987Z,2.90
2018-12-13T14:24:51.411Z,3.43
2018-12-13T14:27:18.362Z,3.03
2018-12-13T14:29:44.807Z,3.47
2018-12-13T14:32:11.381Z,2.87
2018-12-13T14:34:37.797Z,3.40
2018-12-13T14:37:05.047Z,3.20
2018-12-13T14:39:31.605Z,4.50
2018-12-13T14:41:58.033Z,3.20
2018-12-13T14:44:24.380Z,3.33
2018-12-13T14:46:50.812Z,2.87
2018-12-13T14:49:17.300Z,3.13
2018-12-13T14:51:43.695Z,3.60
2018-12-13T14:54:11.118Z,3.10
2018-12-13T14:56:37.935Z,3.77
2018-12-13T14:59:04.366Z,2.90
2018-12-13T15:01:30.752Z,3.30
2018-12-13T15:03:57.180Z,4.17
2018-12-13T15:06:23.589Z,3.87
2018-12-13T15:08:50.018Z,4.10
2018-12-13T15:11:16.435Z,3.10
2018-12-13T15:13:42.874Z,3.40
2018-12-13T15:16:09.322Z,4.60
2018-12-13T15:18:35.678Z,4.40
2018-12-13T15:21:02.080Z,4.27
2018-12-13T15:23:28.557Z,3.97
2018-12-13T15:25:55.039Z,3.40
2018-12-13T15:28:21.573Z,3.70
2018-12-13T15:30:47.988Z,3.50
2018-12-13T15:33:14.633Z,5.13
2018-12-13T15:35:41.034Z,4.73
2018-12-13T15:38:07.498Z,4.13
2018-12-13T15:40:33.956Z,4.63
2018-12-13T15:43:00.460Z,3.93
2018-12-13T15:45:26.905Z,3.90
2018-12-13T15:50:48.155Z,4.53
2018-12-13T15:53:14.639Z,5.40
2018-12-13T15:55:41.186Z,4.30
2018-12-13T15:58:07.815Z,4.63
2018-12-13T16:00:34.556Z,4.20
2018-12-13T16:03:00.964Z,4.30
2018-12-13T16:05:42.871Z,4.13
2018-12-13T16:08:10.350Z,4.83
2018-12-13T16:10:36.896Z,4.30
2018-12-13T16:13:03.817Z,4.00
2018-12-13T16:15:30.500Z,3.97
2018-12-13T16:17:56.874Z,4.23
2018-12-13T16:20:23.455Z,5.00
2018-12-13T16:22:50.173Z,4.53
2018-12-13T16:25:16.584Z,4.53
2018-12-13T16:27:43.371Z,4.93
2018-12-13T16:30:10.300Z,4.10
2018-12-13T16:32:36.886Z,4.23
2018-12-13T16:35:03.608Z,4.03
2018-12-13T16:37:30.236Z,4.80
2018-12-13T16:39:56.939Z,4.53
2018-12-13T16:42:24.583Z,4.10
2018-12-13T16:44:51.041Z,3.67
2018-12-13T16:47:19.435Z,4.00
2018-12-13T16:49:46.266Z,4.10
2018-12-13T16:52:14.266Z,4.60
2018-12-13T16:54:40.795Z,4.07
2018-12-13T16:57:07.315Z,4.60
2018-12-13T16:59:33.864Z,3.67
2018-12-13T17:02:00.690Z,4.97
2018-12-13T17:04:27.160Z,4.40
2018-12-13T17:06:53.498Z,5.13
2018-12-13T17:09:19.874Z,4.47
2018-12-13T17:11:46.317Z,4.60
2018-12-13T17:14:13.891Z,5.13
2018-12-13T17:16:40.532Z,4.53
2018-12-13T17:19:07.116Z,4.53
2018-12-13T17:21:34.077Z,3.13
2018-12-13T17:24:00.737Z,5.33
2018-12-13T17:26:27.485Z,5.47
2018-12-13T17:28:53.980Z,5.17
2018-12-13T17:31:20.452Z,4.50
2018-12-13T17:33:46.898Z,5.07
2018-12-13T17:36:13.721Z,3.87
2018-12-13T17:38:40.792Z,4.30
2018-12-13T17:41:07.195Z,4.20
2018-12-13T17:43:35.222Z,4.97
2018-12-13T17:46:01.639Z,4.47
2018-12-13T17:48:28.071Z,4.67
2018-12-13T17:50:54.484Z,4.10
2018-12-13T17:53:20.840Z,4.47
2018-12-13T17:55:47.241Z,5.20
2018-12-13T17:58:13.783Z,3.90
2018-12-13T18:00:40.197Z,4.90
2018-12-13T18:03:06.585Z,4.27
2018-12-13T18:05:33.188Z,4.13
2018-12-13T18:07:59.597Z,3.77
2018-12-13T18:10:29.324Z,5.10
2018-12-13T18:12:54.505Z,4.47
2018-12-13T18:15:20.926Z,5.37
2018-12-13T18:17:47.491Z,4.80
2018-12-13T18:20:14.021Z,4.30
2018-12-13T18:25:35.083Z,3.90
2018-12-13T18:28:01.530Z,3.60
2018-12-13T18:30:28.113Z,3.63
2018-12-13T18:32:54.616Z,4.03
2018-12-13T18:35:21.015Z,4.20
2018-12-13T18:37:47.381Z,3.90
2018-12-13T18:40:13.803Z,3.30
2018-12-13T18:42:40.250Z,4.10
2018-12-13T18:45:06.829Z,3.87
2018-12-13T18:47:33.285Z,4.93
2018-12-13T18:49:59.764Z,4.37
2018-12-13T18:52:26.550Z,3.70
2018-12-13T18:54:53.148Z,3.67
2018-12-13T18:57:19.503Z,4.00
2018-12-13T18:59:45.955Z,4.13
2018-12-13T19:02:12.732Z,3.57
2018-12-13T19:04:39.268Z,5.13
2018-12-13T19:07:05.748Z,3.47
2018-12-13T19:09:32.214Z,3.73
2018-12-13T19:11:58.659Z,3.87
2018-12-13T19:14:25.139Z,3.53
2018-12-13T19:16:53.731Z,3.97
2018-12-13T19:19:20.163Z,4.77
2018-12-13T19:21:47.620Z,3.60
2018-12-13T19:24:15.162Z,4.20
2018-12-13T19:26:41.662Z,3.87
2018-12-13T19:29:08.216Z,3.70
2018-12-13T19:31:35.377Z,3.73
2018-12-13T19:34:01.902Z,3.17
2018-12-13T19:36:28.430Z,4.17
2018-12-13T19:38:55.897Z,3.70
2018-12-13T19:41:22.517Z,4.17
2018-12-13T19:43:48.978Z,4.60
2018-12-13T19:46:15.363Z,5.00
2018-12-13T19:48:46.234Z,4.10
2018-12-13T19:51:14.419Z,4.97
2018-12-13T19:53:42.116Z,4.03
2018-12-13T19:56:08.729Z,3.97
2018-12-13T19:58:35.075Z,4.17
2018-12-13T20:01:02.562Z,3.97
2018-12-13T20:03:28.925Z,4.10
2018-12-13T20:05:55.349Z,9.30
2018-12-13T20:08:24.613Z,7.10
2018-12-13T20:10:54.573Z,4.87
2018-12-13T20:13:20.430Z,5.33
2018-12-13T20:15:46.804Z,4.17
2018-12-13T20:18:13.165Z,4.17
2018-12-13T20:20:39.590Z,4.93
2018-12-13T20:23:05.954Z,4.30
2018-12-13T20:25:33.497Z,5.30
2018-12-13T20:27:59.939Z,5.33
2018-12-13T20:30:26.317Z,8.10
2018-12-13T20:32:52.704Z,5.43
2018-12-13T20:35:19.411Z,4.47
2018-12-13T20:37:46.324Z,4.60
2018-12-13T20:40:13.137Z,5.40
2018-12-13T20:42:39.627Z,4.43
2018-12-13T20:45:06.512Z,6.03
2018-12-13T20:47:32.984Z,5.60
2018-12-13T20:49:59.710Z,5.30
2018-12-13T20:52:28.108Z,5.43
2018-12-13T20:54:54.670Z,4.43
2018-12-13T20:57:21.161Z,5.10
2018-12-13T20:59:47.567Z,5.07
2018-12-13T21:02:13.959Z,4.63
2018-12-13T21:04:41.396Z,5.50
2018-12-13T21:07:13.799Z,6.77
2018-12-13T21:09:40.173Z,5.67
2018-12-13T21:12:06.587Z,4.53
2018-12-13T21:14:33.992Z,6.27
2018-12-13T21:17:07.467Z,5.20
2018-12-13T21:19:33.877Z,5.03
2018-12-13T21:22:07.288Z,5.03
2018-12-13T21:24:33.679Z,5.10
2018-12-13T21:27:00.043Z,5.90
2018-12-13T21:29:26.504Z,5.03
2018-12-13T21:31:52.903Z,5.40
2018-12-13T21:34:19.309Z,3.73
2018-12-13T21:36:45.765Z,3.97
2018-12-13T21:39:12.322Z,5.53
2018-12-13T21:41:39.303Z,4.93
2018-12-13T21:44:06.048Z,5.43
2018-12-13T21:46:32.490Z,5.67
2018-12-13T21:48:58.841Z,4.87
2018-12-13T21:51:25.337Z,4.20
2018-12-13T21:53:51.701Z,3.90
2018-12-13T21:56:18.177Z,4.27
2018-12-13T21:58:44.646Z,4.47
2018-12-13T22:01:26.376Z,4.13
2018-12-13T22:03:52.796Z,4.17
2018-12-13T22:06:19.253Z,3.90
2018-12-13T22:08:47.576Z,4.33
2018-12-13T22:11:19.822Z,3.90
2018-12-13T22:13:47.248Z,4.87
2018-12-13T22:16:13.836Z,4.03
2018-12-13T22:18:40.307Z,3.60
2018-12-13T22:21:06.861Z,4.77
2018-12-13T22:23:33.311Z,4.20
2018-12-13T22:25:59.821Z,4.97
2018-12-13T22:28:26.268Z,4.30
2018-12-13T22:30:52.709Z,3.87
2018-12-13T22:33:19.093Z,3.57
2018-12-13T22:35:45.438Z,4.37
2018-12-13T22:38:11.866Z,3.80
2018-12-13T22:40:38.448Z,3.83
2018-12-13T22:43:04.862Z,4.20
2018-12-13T22:45:31.237Z,4.53
2018-12-13T22:47:57.620Z,3.90
2018-12-13T22:50:24.000Z,3.53
2018-12-13T22:52:50.431Z,4.30
2018-12-13T22:55:16.870Z,4.57
2018-12-13T22:57:43.332Z,3.97
2018-12-13T23:00:10.508Z,4.00
2018-12-13T23:02:37.197Z,3.90
2018-12-13T23:05:04.858Z,3.60
2018-12-13T23:07:31.277Z,3.90
2018-12-13T23:09:57.718Z,3.90
2018-12-13T23:12:24.136Z,4.07
2018-12-13T23:14:57.865Z,3.37
2018-12-13T23:17:24.345Z,4.07
2018-12-13T23:19:50.751Z,3.83
2018-12-13T23:22:17.160Z,4.27
2018-12-13T23:24:43.573Z,4.00
2018-12-13T23:27:10.260Z,3.97
2018-12-13T23:29:36.682Z,4.27
2018-12-13T23:32:03.118Z,4.60
2018-12-13T23:34:29.639Z,3.40
2018-12-13T23:36:56.010Z,4.30
2018-12-13T23:39:22.528Z,3.77
2018-12-13T23:41:48.973Z,3.60
2018-12-13T23:47:09.892Z,3.07
2018-12-13T23:49:36.326Z,3.90
2018-12-13T23:52:02.802Z,3.00
2018-12-13T23:54:29.237Z,3.77
2018-12-13T23:56:55.597Z,4.20
2018-12-13T23:59:22.083Z,3.70
